AirNav   Everest Fuels
 
 1566 users online  

09VG Augusta Medical Center Heliport
Fishersville, Virginia, USA

GOING TO FISHERSVILLE?


FAA INFORMATION EFFECTIVE 22 APRIL 2021

Location

FAA Identifier: 09VG
Lat/Long: 38-05-44.1000N 078-59-12.2400W
38-05.735000N 078-59.204000W
38.0955833,-78.9867333
(estimated)
Elevation: 1362 ft. / 415 m (estimated)
Variation: 09W (2010)
From city: 5 miles W of FISHERSVILLE, VA
Time zone: UTC -4 (UTC -5 during Standard Time)
Zip code: 22939

Heliport Operations

Heliport use: Private use. Permission required prior to landing
Activation date: 12/2003
Control tower: no
ARTCC: WASHINGTON CENTER
FSS: LEESBURG FLIGHT SERVICE STATION
NOTAMs facility: FDC (NOTAM-D service not available)
Attendance: UNATNDD
Wind indicator: yes
Segmented circle: no
Lights: FOR PERIMETER LGTS, CALL 540-932-4000.
Beacon: PHONE REQ

Heliport Communications

WX AWOS-3PT at W13 (2.3 nm SE): 118.625 (540-941-7570)
WX AWOS-3 at SHD (11 nm NE): 124.925 (540-234-0110)
WX AWOS-3 at VBW (16 nm N): 119.55 (540-828-2076)
  • MED 9, 462.950.

Nearby radio navigation aids

VOR radial/distance  VOR name  Freq  Var
MOLr031/13.0MONTEBELLO VOR/DME115.3005W
GVEr283/39.7GORDONSVILLE VORTAC115.6006W

 
NDB name  Hdg/Dist  Freq  Var  ID
STAUT201/6.537509WSH ... ....

Heliport Services

Runway Information

Helipad H1

Dimensions: 60 x 60 ft. / 18 x 18 m
Surface: concrete
Runway edge lights: PERI
Latitude: 38-05.735000N
Longitude: 078-59.204000W
Elevation: 1362.0 ft.
Traffic pattern: leftleft

Heliport Ownership and Management from official FAA records

Ownership: Privately-owned
Owner: AUGUSTA HEALTH INC.
78 MEDICAL CENTER DR, PO BOX 1000
FISHERVILLE, VA 22939
Phone (540) 932-4800
Manager: BRIAN CROGHAN
78 MEDICAL CENTER, P. O. BOX 1000
FISHERSVILLE, VA 22939
Phone 540-932-4770
OTHER CONTACT: AUGUSTA HEALTH MAINTENANCE 540-932-4770

Additional Remarks

FOR CD CTC POTOMAC APCH AT 866-640-4124.

Instrument Procedures

There are no published instrument procedures at 09VG.

Some nearby airports with instrument procedures:

W13 - Eagle's Nest Airport (2 nm SE)
KSHD - Shenandoah Valley Regional Airport (11 nm NE)
KVBW - Bridgewater Air Park (16 nm N)
KCHO - Charlottesville-Albemarle Airport (25 nm E)
8W2 - New Market Airport (36 nm N)
 
Loc | Ops | Rwys | IFR | FBO | Links
Com | Nav | Svcs | Stats | Notes
Area around 09VG (Augusta Medical Center Heliport)
 
Road maps at: MapQuest Bing Google
 
Aerial photo
No photo
 
Sectional chart

 
Airport distance calculator
Flying to Augusta Medical Center Heliport? Find the distance to fly.

From to 09VG

Sunrise and sunset
Times for 14-May-2021
 Local
(UTC-4)
 Zulu
(UTC)
Morning civil twilight05:3809:38
Sunrise06:0710:07
Sunset20:1700:17
Evening civil twilight20:4700:47

Current date and time
Zulu (UTC)  14-May-2021 18:16:32
Local (UTC-4)  14-May-2021 14:16:32
 
METAR
KW13 
2nm SE 
141755Z AUTO 31003KT 10SM OVC110 18/00 A3027 RMK AO1 T01751001 10192 20082
KSHD 
11nm N 
141755Z AUTO 34007KT 10SM SCT090 OVC110 19/00 A3029 RMK AO2 T01861003 10200 20055
KVBW 
16nm N 
141755Z AUTO 00000KT 10SM OVC100 17/00 A3027 RMK AO1 T01721001 10192 20055
TAF
KCHO 
25nm E 
141727Z 1418/1518 05008KT P6SM BKN100 FM150100 28003KT P6SM SCT090 FM150600 00000KT P6SM SKC
NOTAMs
Click for the latest NOTAMs
NOTAMs are issued by the DoD/FAA and will open in a separate window not controlled by AirNav.

 

 
 

Would you like to see your business listed on this page?

 If your business provides an interesting product or service to pilots, flight crews, aircraft, or users of the Augusta Medical Center Heliport, you should consider listing it here.  To start the listing process, click on the button below
 
Add a business
 

Other Pages about Augusta Medical Center Heliport

Update a link
 
Copyright © AirNav, LLC. All rights reserved. Privacy Policy  Contact